createdAt,value
2022-11-12T00:01:59.809Z,10.52
2022-11-12T00:05:06.028Z,10.47
2022-11-12T00:08:12.614Z,10.34
2022-11-12T00:11:18.845Z,10.26
2022-11-12T00:14:25.263Z,10.18
2022-11-12T00:17:31.674Z,10.14
2022-11-12T00:20:38.150Z,10.13
2022-11-12T00:23:44.587Z,10.11
2022-11-12T00:26:50.651Z,10.07
2022-11-12T00:29:57.177Z,10.04
2022-11-12T00:33:04.966Z,10.00
2022-11-12T00:36:11.803Z,9.98
2022-11-12T00:39:18.295Z,9.96
2022-11-12T00:42:24.499Z,10.00
2022-11-12T00:45:30.520Z,10.10
2022-11-12T00:48:36.696Z,10.11
2022-11-12T00:51:43.368Z,10.10
2022-11-12T00:54:49.344Z,9.99
2022-11-12T00:57:57.712Z,9.95
2022-11-12T01:01:10.048Z,9.93
2022-11-12T01:04:16.259Z,9.91
2022-11-12T01:07:22.660Z,9.89
2022-11-12T01:10:28.770Z,9.90
2022-11-12T01:13:37.792Z,9.91
2022-11-12T01:16:47.822Z,9.91
2022-11-12T01:19:54.449Z,9.90
2022-11-12T01:23:00.464Z,9.91
2022-11-12T01:26:08.312Z,9.97
2022-11-12T01:29:14.615Z,10.01
2022-11-12T01:32:20.698Z,10.09
2022-11-12T01:35:26.587Z,10.17
2022-11-12T01:38:37.616Z,10.25
2022-11-12T01:41:44.041Z,10.28
2022-11-12T01:44:52.066Z,10.27
2022-11-12T01:47:58.375Z,10.27
2022-11-12T01:51:07.110Z,10.24
2022-11-12T01:54:17.865Z,10.27
2022-11-12T01:57:34.382Z,10.27
2022-11-12T02:00:41.874Z,10.29
2022-11-12T02:03:48.144Z,10.27
2022-11-12T02:06:57.503Z,10.25
2022-11-12T02:10:05.797Z,10.23
2022-11-12T02:13:30.775Z,10.22
2022-11-12T02:16:40.250Z,10.25
2022-11-12T02:19:47.422Z,10.25
2022-11-12T02:22:53.275Z,10.22
2022-11-12T02:26:01.011Z,10.19
2022-11-12T02:29:07.220Z,10.16
2022-11-12T02:32:14.306Z,10.14
2022-11-12T02:35:20.545Z,10.15
2022-11-12T02:38:27.103Z,10.18
2022-11-12T02:41:33.294Z,10.20
2022-11-12T02:44:39.898Z,10.24
2022-11-12T02:47:45.965Z,10.30
2022-11-12T02:50:52.526Z,10.33
2022-11-12T02:53:58.851Z,10.38
2022-11-12T02:57:04.705Z,10.45
2022-11-12T03:00:13.393Z,10.48
2022-11-12T03:03:19.548Z,10.50
2022-11-12T03:06:25.663Z,10.52
2022-11-12T03:09:32.137Z,10.54
2022-11-12T03:12:38.478Z,10.54
2022-11-12T03:15:44.812Z,10.56
2022-11-12T03:18:50.973Z,10.56
2022-11-12T03:21:56.919Z,10.60
2022-11-12T03:25:03.665Z,10.63
2022-11-12T03:28:13.389Z,10.65
2022-11-12T03:31:20.468Z,10.65
2022-11-12T03:34:26.487Z,10.66
2022-11-12T03:37:32.444Z,10.66
2022-11-12T03:40:38.799Z,10.69
2022-11-12T03:43:45.020Z,10.72
2022-11-12T03:46:51.226Z,10.71
2022-11-12T03:49:57.211Z,10.72
2022-11-12T03:53:04.010Z,10.72
2022-11-12T03:56:10.184Z,10.73
2022-11-12T03:59:16.271Z,10.73
2022-11-12T04:02:22.432Z,10.70
2022-11-12T04:06:04.148Z,10.71
2022-11-12T04:09:10.600Z,10.73
2022-11-12T04:12:55.262Z,10.72
2022-11-12T04:16:41.452Z,10.75
2022-11-12T04:20:06.299Z,10.77
2022-11-12T04:23:12.221Z,10.83
2022-11-12T04:26:24.477Z,10.83
2022-11-12T04:29:49.808Z,10.87
2022-11-12T04:32:56.911Z,10.85
2022-11-12T04:36:03.894Z,10.84
2022-11-12T04:39:09.911Z,10.86
2022-11-12T04:42:34.802Z,10.89
2022-11-12T04:45:43.556Z,10.91
2022-11-12T04:48:49.499Z,10.94
2022-11-12T04:52:07.627Z,10.93
2022-11-12T04:55:13.833Z,10.92
2022-11-12T04:58:20.226Z,10.96
2022-11-12T05:01:26.541Z,10.95
2022-11-12T05:04:32.714Z,10.97
2022-11-12T05:07:39.127Z,10.97
2022-11-12T05:10:45.345Z,10.97
2022-11-12T05:13:51.721Z,10.98
2022-11-12T05:16:57.925Z,11.00
2022-11-12T05:20:04.936Z,11.04
2022-11-12T05:23:11.440Z,11.04
2022-11-12T05:26:17.805Z,11.06
2022-11-12T05:29:24.283Z,11.10
2022-11-12T05:32:30.239Z,11.08
2022-11-12T05:35:36.290Z,11.10
2022-11-12T05:38:42.355Z,11.14
2022-11-12T05:42:11.495Z,11.21
2022-11-12T05:45:15.145Z,11.27
2022-11-12T05:48:24.440Z,11.29
2022-11-12T05:51:30.961Z,11.30
2022-11-12T05:54:37.077Z,11.32
2022-11-12T05:57:42.932Z,11.31
2022-11-12T06:00:49.344Z,11.38
2022-11-12T06:03:56.479Z,11.43
2022-11-12T06:07:04.315Z,11.43
2022-11-12T06:10:10.366Z,11.46
2022-11-12T06:13:16.470Z,11.41
2022-11-12T06:16:22.346Z,11.41
2022-11-12T06:19:28.705Z,11.43
2022-11-12T06:22:35.057Z,11.46
2022-11-12T06:25:41.350Z,11.49
2022-11-12T06:28:49.248Z,11.54
2022-11-12T06:31:55.506Z,11.60
2022-11-12T06:35:01.818Z,11.60
2022-11-12T06:38:08.314Z,11.68
2022-11-12T06:41:17.408Z,11.81
2022-11-12T06:44:24.043Z,11.82
2022-11-12T06:47:30.279Z,11.80
2022-11-12T06:50:36.314Z,11.83
2022-11-12T06:53:42.296Z,11.80
2022-11-12T06:56:48.272Z,11.77
2022-11-12T06:59:54.440Z,11.80
2022-11-12T07:03:00.682Z,11.84
2022-11-12T07:06:13.128Z,11.89
2022-11-12T07:09:19.483Z,11.94
2022-11-12T07:12:25.872Z,12.10
2022-11-12T07:15:32.138Z,12.05
2022-11-12T07:18:38.827Z,12.10
2022-11-12T07:21:45.101Z,12.17
2022-11-12T07:24:51.352Z,12.22
2022-11-12T07:27:57.428Z,12.26
2022-11-12T07:31:06.840Z,12.30
2022-11-12T07:34:13.063Z,12.46
2022-11-12T07:37:19.427Z,12.61
2022-11-12T07:40:25.770Z,12.67
2022-11-12T07:43:33.654Z,12.62
2022-11-12T07:46:40.306Z,12.58
2022-11-12T07:49:46.524Z,12.51
2022-11-12T07:52:53.161Z,12.44
2022-11-12T07:56:01.434Z,12.37
2022-11-12T07:59:08.041Z,12.43
2022-11-12T08:02:14.259Z,12.46
2022-11-12T08:05:21.609Z,12.45
2022-11-12T08:08:30.252Z,12.50
2022-11-12T08:11:36.557Z,12.54
2022-11-12T08:14:42.753Z,12.49
2022-11-12T08:17:51.073Z,12.54
2022-11-12T08:21:04.733Z,12.64
2022-11-12T08:24:11.005Z,12.67
2022-11-12T08:27:17.228Z,12.67
2022-11-12T08:30:23.738Z,12.65
2022-11-12T08:33:30.844Z,12.70
2022-11-12T08:36:37.275Z,12.67
2022-11-12T08:39:43.706Z,12.71
2022-11-12T08:43:04.442Z,12.77
2022-11-12T08:46:10.455Z,12.88
2022-11-12T08:49:16.347Z,12.91
2022-11-12T08:52:22.646Z,12.89
2022-11-12T08:55:35.813Z,12.94
2022-11-12T08:58:41.855Z,12.99
2022-11-12T09:01:48.170Z,13.01
2022-11-12T09:04:54.683Z,13.08
2022-11-12T09:08:10.252Z,13.14
2022-11-12T09:11:18.080Z,13.24
2022-11-12T09:14:24.346Z,13.39
2022-11-12T09:17:32.640Z,13.29
2022-11-12T09:20:38.707Z,13.14
2022-11-12T09:23:44.727Z,13.11
2022-11-12T09:26:53.911Z,13.07
2022-11-12T09:30:00.911Z,13.09
2022-11-12T09:33:07.064Z,13.09
2022-11-12T09:36:13.162Z,13.27
2022-11-12T09:39:19.555Z,13.29
2022-11-12T09:42:25.723Z,13.23
2022-11-12T09:45:33.130Z,13.21
2022-11-12T09:48:44.336Z,13.27
2022-11-12T09:51:55.005Z,13.29
2022-11-12T09:55:26.101Z,13.21
2022-11-12T09:58:32.018Z,13.15
2022-11-12T10:01:41.214Z,13.14
2022-11-12T10:05:12.488Z,13.21
2022-11-12T10:08:40.700Z,13.14
2022-11-12T10:12:22.369Z,13.12
2022-11-12T10:15:58.166Z,13.20
2022-11-12T10:19:27.013Z,13.25
2022-11-12T10:23:11.494Z,13.29
2022-11-12T10:26:20.638Z,13.32
2022-11-12T10:29:40.614Z,13.37
2022-11-12T10:32:48.620Z,13.33
2022-11-12T10:35:57.148Z,13.17
2022-11-12T10:39:03.635Z,13.04
2022-11-12T10:42:13.089Z,13.04
2022-11-12T10:45:22.096Z,13.04
2022-11-12T10:48:33.362Z,13.06
2022-11-12T10:51:40.505Z,13.11
2022-11-12T10:54:50.979Z,13.09
2022-11-12T10:58:09.422Z,13.13
2022-11-12T11:01:17.950Z,13.12
2022-11-12T11:04:36.137Z,13.10
2022-11-12T11:07:50.146Z,13.12
2022-11-12T11:11:21.537Z,13.11
2022-11-12T11:14:33.540Z,13.03
2022-11-12T11:17:39.884Z,12.94
2022-11-12T11:20:56.545Z,12.92
2022-11-12T11:24:21.781Z,12.83
2022-11-12T11:27:51.060Z,12.76
2022-11-12T11:31:16.993Z,12.69
2022-11-12T11:34:37.593Z,12.71
2022-11-12T11:38:21.884Z,12.82
2022-11-12T11:41:30.914Z,12.90
2022-11-12T11:44:37.173Z,12.86
2022-11-12T11:48:01.812Z,12.83
2022-11-12T11:51:36.990Z,12.80
2022-11-12T11:54:48.874Z,12.87
2022-11-12T11:58:01.203Z,12.84
2022-11-12T12:01:26.561Z,12.77
2022-11-12T12:04:38.819Z,12.77
2022-11-12T12:08:10.973Z,12.69
2022-11-12T12:11:41.921Z,12.62
2022-11-12T12:15:30.483Z,12.58
2022-11-12T12:18:42.664Z,12.53
2022-11-12T12:21:51.253Z,12.53
2022-11-12T12:25:03.645Z,12.55
2022-11-12T12:28:21.679Z,12.48
2022-11-12T12:31:36.369Z,12.39
2022-11-12T12:34:51.338Z,12.30
2022-11-12T12:38:22.403Z,12.27
2022-11-12T12:41:39.682Z,12.22
2022-11-12T12:45:00.982Z,12.20
2022-11-12T12:48:14.409Z,12.20
2022-11-12T12:51:21.869Z,12.16
2022-11-12T12:54:40.408Z,12.20
2022-11-12T12:57:46.546Z,12.26
2022-11-12T13:00:59.197Z,12.32
2022-11-12T13:04:08.959Z,12.37
2022-11-12T13:07:15.653Z,12.44
2022-11-12T13:10:49.568Z,12.50
2022-11-12T13:13:55.892Z,12.54
2022-11-12T13:17:08.333Z,12.54
2022-11-12T13:20:33.418Z,12.55
2022-11-12T13:24:13.228Z,12.53
2022-11-12T13:27:39.304Z,12.55
2022-11-12T13:30:45.464Z,12.54
2022-11-12T13:33:52.498Z,12.49
2022-11-12T13:37:04.959Z,12.50
2022-11-12T13:40:15.630Z,12.54
2022-11-12T13:43:36.180Z,12.60
2022-11-12T13:46:44.197Z,12.63
2022-11-12T13:49:50.721Z,12.64
2022-11-12T13:52:56.742Z,12.64
2022-11-12T13:56:02.743Z,12.64
2022-11-12T13:59:16.219Z,12.65
2022-11-12T14:02:26.831Z,12.65
2022-11-12T14:05:35.570Z,12.66
2022-11-12T14:08:53.433Z,12.68
2022-11-12T14:12:17.629Z,12.68
2022-11-12T14:15:47.771Z,12.67
2022-11-12T14:19:02.860Z,12.61
2022-11-12T14:22:09.161Z,12.60
2022-11-12T14:25:20.255Z,12.61
2022-11-12T14:28:31.454Z,12.61
2022-11-12T14:31:37.930Z,12.61
2022-11-12T14:34:44.101Z,12.62
2022-11-12T14:38:00.170Z,12.63
2022-11-12T14:41:26.101Z,12.62
2022-11-12T14:44:36.095Z,12.59
2022-11-12T14:47:42.591Z,12.56
2022-11-12T14:50:51.502Z,12.54
2022-11-12T14:54:05.940Z,12.49
2022-11-12T14:57:22.830Z,12.41
2022-11-12T15:00:32.110Z,12.40
2022-11-12T15:03:38.655Z,12.44
2022-11-12T15:06:55.022Z,12.51
2022-11-12T15:10:21.420Z,12.59
2022-11-12T15:13:28.004Z,12.67
2022-11-12T15:16:36.297Z,12.68
2022-11-12T15:19:42.854Z,12.67
2022-11-12T15:22:53.970Z,12.64
2022-11-12T15:26:01.466Z,12.63
2022-11-12T15:29:10.324Z,12.66
2022-11-12T15:32:16.757Z,12.67
2022-11-12T15:35:26.160Z,12.68
2022-11-12T15:38:37.868Z,12.74
2022-11-12T15:41:43.978Z,12.81
2022-11-12T15:44:57.138Z,12.84
2022-11-12T15:48:03.365Z,12.87
2022-11-12T15:51:20.769Z,12.91
2022-11-12T15:54:27.015Z,12.94
2022-11-12T15:57:41.000Z,12.98
2022-11-12T16:00:51.510Z,12.99
2022-11-12T16:03:57.936Z,12.97
2022-11-12T16:07:07.009Z,12.89
2022-11-12T16:10:18.522Z,12.89
2022-11-12T16:13:31.068Z,12.93
2022-11-12T16:16:39.340Z,12.95
2022-11-12T16:19:45.387Z,13.04
2022-11-12T16:22:52.478Z,13.14
2022-11-12T16:25:58.429Z,13.23
2022-11-12T16:29:12.943Z,13.27
2022-11-12T16:32:18.951Z,13.25
2022-11-12T16:35:25.757Z,13.27
2022-11-12T16:38:31.597Z,13.32
2022-11-12T16:41:37.489Z,13.35
2022-11-12T16:44:43.355Z,13.36
2022-11-12T16:47:56.493Z,13.33
2022-11-12T16:51:02.402Z,13.34
2022-11-12T16:54:08.440Z,13.26
2022-11-12T16:57:14.661Z,13.19
2022-11-12T17:00:20.924Z,13.16
2022-11-12T17:03:27.173Z,13.19
2022-11-12T17:06:36.770Z,13.21
2022-11-12T17:09:43.291Z,13.19
2022-11-12T17:12:53.362Z,13.15
2022-11-12T17:16:00.076Z,13.12
2022-11-12T17:19:06.325Z,13.14
2022-11-12T17:22:12.717Z,13.17
2022-11-12T17:25:18.743Z,13.17
2022-11-12T17:28:24.823Z,13.23
2022-11-12T17:31:31.459Z,13.26
2022-11-12T17:34:37.817Z,13.29
2022-11-12T17:37:44.941Z,13.29
2022-11-12T17:40:54.805Z,13.21
2022-11-12T17:44:01.827Z,13.16
2022-11-12T17:47:08.143Z,13.13
2022-11-12T17:50:14.500Z,13.08
2022-11-12T17:53:20.926Z,13.02
2022-11-12T17:56:27.215Z,13.08
2022-11-12T17:59:33.542Z,13.11
2022-11-12T18:02:39.616Z,13.11
2022-11-12T18:05:45.921Z,12.98
2022-11-12T18:08:57.450Z,12.88
2022-11-12T18:12:03.913Z,12.81
2022-11-12T18:15:11.353Z,12.78
2022-11-12T18:18:18.736Z,12.75
2022-11-12T18:21:26.358Z,12.70
2022-11-12T18:24:32.536Z,12.67
2022-11-12T18:27:38.564Z,12.69
2022-11-12T18:30:44.859Z,12.65
2022-11-12T18:33:53.288Z,12.69
2022-11-12T18:36:59.213Z,12.69
2022-11-12T18:40:06.057Z,12.70
2022-11-12T18:43:12.192Z,12.67
2022-11-12T18:46:18.454Z,12.61
2022-11-12T18:49:24.938Z,12.58
2022-11-12T18:52:33.603Z,12.54
2022-11-12T18:55:39.798Z,12.50
2022-11-12T18:58:46.447Z,12.43
2022-11-12T19:01:52.736Z,12.37
2022-11-12T19:04:58.767Z,12.35
2022-11-12T19:08:05.143Z,12.31
2022-11-12T19:11:13.533Z,12.27
2022-11-12T19:14:19.589Z,12.34
2022-11-12T19:17:30.511Z,12.51
2022-11-12T19:20:37.249Z,12.67
2022-11-12T19:23:44.265Z,12.74
2022-11-12T19:26:51.522Z,12.81
2022-11-12T19:30:02.625Z,12.87
2022-11-12T19:33:09.498Z,12.87
2022-11-12T19:36:18.186Z,12.87
2022-11-12T19:39:24.441Z,12.86
2022-11-12T19:42:30.495Z,12.86
2022-11-12T19:45:36.397Z,12.83
2022-11-12T19:48:43.202Z,12.83
2022-11-12T19:51:49.614Z,12.82
2022-11-12T19:54:56.130Z,12.77
2022-11-12T19:58:02.308Z,12.78
2022-11-12T20:01:11.463Z,12.78
2022-11-12T20:04:22.993Z,12.77
2022-11-12T20:07:30.705Z,12.78
2022-11-12T20:10:36.925Z,12.77
2022-11-12T20:13:43.735Z,12.78
2022-11-12T20:16:50.941Z,12.75
2022-11-12T20:19:57.022Z,12.69
2022-11-12T20:23:03.277Z,12.55
2022-11-12T20:26:11.483Z,12.54
2022-11-12T20:29:17.703Z,12.59
2022-11-12T20:32:23.382Z,12.65
2022-11-12T20:35:29.479Z,12.64
2022-11-12T20:38:39.953Z,12.62
2022-11-12T20:41:46.187Z,12.55
2022-11-12T20:44:53.702Z,12.45
2022-11-12T20:47:59.983Z,12.35
2022-11-12T20:51:23.193Z,12.22
2022-11-12T20:54:30.344Z,12.12
2022-11-12T20:57:36.462Z,12.05
2022-11-12T21:00:43.295Z,11.99
2022-11-12T21:03:49.332Z,11.93
2022-11-12T21:06:59.779Z,11.88
2022-11-12T21:10:10.015Z,11.85
2022-11-12T21:13:16.217Z,11.81
2022-11-12T21:16:22.335Z,11.77
2022-11-12T21:19:28.638Z,11.77
2022-11-12T21:22:34.511Z,11.76
2022-11-12T21:25:40.642Z,11.76
2022-11-12T21:28:52.755Z,11.68
2022-11-12T21:31:58.914Z,11.66
2022-11-12T21:35:05.429Z,11.68
2022-11-12T21:38:11.794Z,11.62
2022-11-12T21:41:20.782Z,11.61
2022-11-12T21:44:27.107Z,11.58
2022-11-12T21:47:33.614Z,11.55
2022-11-12T21:50:39.876Z,11.52
2022-11-12T21:53:46.526Z,11.54
2022-11-12T21:56:52.532Z,11.57
2022-11-12T22:00:19.500Z,11.57
2022-11-12T22:03:25.167Z,11.57
2022-11-12T22:06:31.627Z,11.59
2022-11-12T22:09:37.854Z,11.70
2022-11-12T22:13:04.815Z,11.78
2022-11-12T22:16:15.989Z,11.79
2022-11-12T22:19:23.724Z,11.84
2022-11-12T22:22:29.813Z,11.86
2022-11-12T22:25:35.687Z,11.82
2022-11-12T22:28:41.742Z,11.80
2022-11-12T22:31:47.668Z,11.79
2022-11-12T22:34:53.782Z,11.78
2022-11-12T22:37:59.687Z,11.72
2022-11-12T22:41:11.501Z,11.65
2022-11-12T22:44:18.962Z,11.59
2022-11-12T22:47:25.042Z,11.51
2022-11-12T22:50:31.247Z,11.41
2022-11-12T22:53:37.214Z,11.47
2022-11-12T22:56:43.137Z,11.49
2022-11-12T22:59:49.417Z,11.53
2022-11-12T23:02:55.569Z,11.56
2022-11-12T23:06:04.338Z,11.58
2022-11-12T23:09:15.069Z,11.58
2022-11-12T23:12:21.232Z,11.60
2022-11-12T23:15:30.934Z,11.63
2022-11-12T23:18:37.598Z,11.64
2022-11-12T23:21:43.822Z,11.67
2022-11-12T23:24:49.907Z,11.64
2022-11-12T23:27:55.850Z,11.62
2022-11-12T23:31:03.774Z,11.59
2022-11-12T23:34:10.005Z,11.59
2022-11-12T23:37:15.792Z,11.57
2022-11-12T23:40:21.812Z,11.57
2022-11-12T23:43:28.023Z,11.51
2022-11-12T23:46:33.883Z,11.49
2022-11-12T23:49:39.937Z,11.45
2022-11-12T23:52:46.688Z,11.39
2022-11-12T23:55:53.363Z,11.36
2022-11-12T23:58:59.482Z,11.36
